Pagrindinis puslapis
METAR-TAF:

METAR-TAF

Oro uostai :

Akaba, Jordanija

platuma: 29-38N, ilguma: 035-01E, Aukštis: 53 m

Dabartinis oras

Ataskaita buvo paskelbta 1 valandą ir 39 minutes, ne 01:00 UTC
Vėjas 5 kt iš Vakarų/Šiaurės Vakarų
Temperatūra 8°C
Drėgmė 61%
Slėgis 1025 hPa
Išsisklaidę debesys ne aukštis 3000 ft
Išsisklaidę debesys ne aukštis 3500 ft

METAR: OJAQ 200100Z 30005KT SCT030 SCT035 08/01 Q1025 NOSIG

Laikas: 04:39 (02:39 UTC)

Prognozė

Ataskaita buvo paskelbta 3 valandos ir 49 minutes, ne 22:50 UTC
Prognozė galioja nuo 20 metu 00 UTC su 21 metu 06 UTC
Vėjas 10 kt iš Šiaurės
Matomumas: 7000 m
Išsisklaidę debesys ne aukštis 3500 ft
Išsisklaidę debesys ne aukštis 4000 ft

TAF: OJAQ 192250Z 2000/2106 36010KT 7000 SCT035 SCT040

Orai ataskaitas ir orų prognozės (METAR, TAF).

turimą stotys yra geltonos ir raudonos taškus žemėlapyje.

Perkelti pele per norėdami pamatyti stoties vardą.

Tada spustelėkite, norėdami matyti oro stebėjimo ir prognozės.

Norėdami pakeisti žemėlapį: spustelėkite ant žalios mygtukų su juodo kryžiaus žemyn,; žalią mygtuką su brūkšneliu, jei norite nutolinti; arba žalių rodyklių gretimoms žemėlapius.


METAR-TAF: